Time;durP1;ratioP1;P1;durP2;ratioP2;P2;SDS_P1;SDS_P2;PMS_P1;PMS_P2;Temp;Humidity;BMP_temperature;BMP_pressure;BME280_temperature;BME280_humidity;BME280_pressure;Samples;Min_cycle;Max_cycle;Signal;HPM_P1;HPM_P2
2022/07/25 00:02:16;;;;;;;3.10;2.13;;;24.90;56.00;;;;;;6106226;23;20017;-80
2022/07/25 00:04:42;;;;;;;3.22;2.30;;;24.90;56.30;;;;;;6099212;23;20014;-80
2022/07/25 00:07:07;;;;;;;2.77;2.30;;;24.80;56.30;;;;;;6082492;23;20120;-80
2022/07/25 00:09:33;;;;;;;2.90;2.40;;;24.80;56.40;;;;;;6109883;23;20014;-80
2022/07/25 00:11:59;;;;;;;3.00;2.40;;;24.70;56.50;;;;;;6099711;23;20125;-79
2022/07/25 00:14:24;;;;;;;2.80;2.13;;;24.70;56.60;;;;;;6111854;23;20014;-80
2022/07/25 00:16:50;;;;;;;4.10;2.22;;;24.70;56.70;;;;;;6100827;23;20014;-79
2022/07/25 00:19:17;;;;;;;2.88;2.15;;;24.60;56.80;;;;;;6084791;23;20445;-80
2022/07/25 00:21:42;;;;;;;3.13;2.40;;;24.50;56.80;;;;;;6090500;23;20017;-80
2022/07/25 00:24:08;;;;;;;3.25;2.47;;;24.50;57.00;;;;;;6109065;23;20427;-80
2022/07/25 00:26:33;;;;;;;3.90;2.57;;;24.50;57.00;;;;;;6107852;23;20014;-80
2022/07/25 00:28:59;;;;;;;2.72;2.20;;;24.40;57.10;;;;;;6075569;23;20104;-79
2022/07/25 00:31:25;;;;;;;2.67;2.20;;;24.40;57.20;;;;;;6110827;23;20363;-80
2022/07/25 00:33:51;;;;;;;3.40;2.40;;;24.40;57.20;;;;;;6071736;23;20259;-79
2022/07/25 00:36:16;;;;;;;2.63;2.30;;;24.30;57.30;;;;;;6099136;23;20009;-80
2022/07/25 00:38:42;;;;;;;2.90;2.50;;;24.30;57.30;;;;;;6107616;23;20014;-80
2022/07/25 00:41:08;;;;;;;2.93;2.13;;;24.30;57.40;;;;;;6085101;23;20010;-80
2022/07/25 00:43:33;;;;;;;3.25;2.20;;;24.30;57.30;;;;;;6077781;23;20006;-80
2022/07/25 00:45:59;;;;;;;2.83;2.03;;;24.30;57.50;;;;;;6107497;23;20065;-79
2022/07/25 00:48:25;;;;;;;2.90;2.03;;;24.30;57.60;;;;;;6081955;23;20101;-80
2022/07/25 00:50:51;;;;;;;3.03;2.40;;;24.20;57.80;;;;;;6089441;23;20179;-80
2022/07/25 00:53:17;;;;;;;4.10;1.97;;;24.30;57.70;;;;;;6110951;23;20037;-80
2022/07/25 00:55:44;;;;;;;3.00;2.05;;;24.30;57.70;;;;;;6101128;23;20014;-80
2022/07/25 00:58:10;;;;;;;3.58;2.33;;;24.30;57.70;;;;;;6084512;23;20067;-79
2022/07/25 01:00:35;;;;;;;2.70;2.10;;;24.30;57.60;;;;;;6076170;23;20098;-78
2022/07/25 01:03:01;;;;;;;3.90;2.10;;;24.40;57.80;;;;;;6082260;23;20168;-79
2022/07/25 01:05:28;;;;;;;2.90;1.88;;;24.30;57.70;;;;;;6106693;23;20021;-79
2022/07/25 01:07:53;;;;;;;2.83;2.30;;;24.40;57.70;;;;;;6069019;23;20021;-79
2022/07/25 01:10:19;;;;;;;3.03;2.03;;;24.40;57.50;;;;;;6083781;23;20010;-79
2022/07/25 01:12:53;;;;;;;2.88;2.22;;;24.50;57.60;;;;;;6101275;23;20025;-79
2022/07/25 01:15:20;;;;;;;4.47;2.03;;;24.50;57.80;;;;;;6103680;23;20017;-79
2022/07/25 01:17:46;;;;;;;2.90;2.20;;;24.50;57.50;;;;;;6105784;23;20022;-79
2022/07/25 01:20:16;;;;;;;3.33;2.50;;;24.50;57.40;;;;;;6101404;23;20010;-79
2022/07/25 01:22:42;;;;;;;3.97;2.10;;;24.60;57.40;;;;;;6069575;23;20014;-79
2022/07/25 01:25:09;;;;;;;3.35;1.98;;;24.60;57.40;;;;;;6103896;23;20093;-79
2022/07/25 01:27:34;;;;;;;3.43;2.17;;;24.60;57.50;;;;;;6106834;23;20009;-79
2022/07/25 01:30:00;;;;;;;3.00;2.20;;;24.60;57.30;;;;;;6101427;23;20378;-79
2022/07/25 01:32:26;;;;;;;3.93;2.10;;;24.60;57.30;;;;;;6072517;23;20316;-79
2022/07/25 01:34:52;;;;;;;2.60;2.00;;;24.70;57.20;;;;;;6105271;23;20010;-79
2022/07/25 01:37:17;;;;;;;3.40;2.17;;;24.60;58.10;;;;;;6097427;23;20053;-81
2022/07/25 01:39:43;;;;;;;3.20;2.13;;;24.60;57.30;;;;;;6081072;23;20456;-81
2022/07/25 01:42:08;;;;;;;2.57;2.00;;;24.70;57.30;;;;;;6098694;23;20014;-79
2022/07/25 01:44:34;;;;;;;3.10;2.20;;;24.60;57.30;;;;;;6110548;23;20463;-79
2022/07/25 01:46:59;;;;;;;3.20;2.20;;;24.60;57.50;;;;;;6101552;23;20246;-79
2022/07/25 01:49:25;;;;;;;3.13;2.10;;;24.60;57.60;;;;;;6108272;23;20356;-79
2022/07/25 01:51:51;;;;;;;3.33;2.25;;;24.50;57.50;;;;;;6106881;23;20045;-79
2022/07/25 01:54:17;;;;;;;3.05;2.20;;;24.50;57.60;;;;;;6096890;23;20018;-79
2022/07/25 01:56:44;;;;;;;2.90;2.10;;;24.50;57.70;;;;;;6112792;23;20010;-79
2022/07/25 01:59:09;;;;;;;3.25;2.40;;;24.50;57.90;;;;;;6102061;23;20010;-79
2022/07/25 02:01:36;;;;;;;2.47;2.10;;;24.50;57.90;;;;;;6105109;23;20145;-79
2022/07/25 02:04:02;;;;;;;3.57;2.27;;;24.40;58.60;;;;;;6084038;23;20238;-79
2022/07/25 02:06:28;;;;;;;3.22;2.10;;;24.30;57.80;;;;;;6105825;23;20145;-79
2022/07/25 02:08:53;;;;;;;2.70;2.20;;;24.30;57.90;;;;;;6099542;23;20097;-79
2022/07/25 02:11:19;;;;;;;3.40;2.33;;;24.20;58.80;;;;;;6082838;23;20514;-79
2022/07/25 02:13:45;;;;;;;3.88;2.20;;;24.20;58.90;;;;;;6112354;23;20439;-79
2022/07/25 02:16:11;;;;;;;3.07;2.20;;;24.10;58.30;;;;;;6074310;23;20101;-79
2022/07/25 02:18:37;;;;;;;2.95;2.30;;;24.10;58.40;;;;;;6111906;23;20041;-79
2022/07/25 02:21:06;;;;;;;3.20;2.30;;;24.00;58.40;;;;;;6109664;23;20032;-79
2022/07/25 02:23:32;;;;;;;3.17;2.30;;;23.90;58.60;;;;;;6092149;23;20261;-79
2022/07/25 02:25:57;;;;;;;3.83;2.25;;;23.90;58.70;;;;;;6100426;23;20228;-79
2022/07/25 02:28:23;;;;;;;4.32;2.38;;;23.80;58.70;;;;;;6079281;23;20014;-79
2022/07/25 02:30:49;;;;;;;2.93;2.17;;;23.80;58.80;;;;;;6081116;23;20287;-79
2022/07/25 02:33:14;;;;;;;3.40;2.38;;;23.70;59.00;;;;;;6072392;23;20010;-79
2022/07/25 02:35:40;;;;;;;3.43;2.13;;;23.70;59.10;;;;;;6082241;23;20060;-79
2022/07/25 02:38:06;;;;;;;3.47;2.23;;;23.70;59.30;;;;;;6108058;23;20466;-79
2022/07/25 02:40:31;;;;;;;2.75;2.15;;;23.60;59.40;;;;;;6073786;23;20015;-79
2022/07/25 02:42:57;;;;;;;3.90;2.17;;;23.60;59.50;;;;;;6109380;23;20337;-79
2022/07/25 02:45:23;;;;;;;4.28;2.30;;;23.50;59.60;;;;;;6105448;23;20443;-79
2022/07/25 02:47:49;;;;;;;3.10;2.40;;;23.50;59.80;;;;;;6074756;23;20474;-79
2022/07/25 02:50:15;;;;;;;2.75;2.08;;;23.40;60.00;;;;;;6086669;23;20061;-79
2022/07/25 02:52:42;;;;;;;3.47;2.30;;;23.40;60.00;;;;;;6081871;23;20014;-79
2022/07/25 02:55:08;;;;;;;2.95;2.20;;;23.30;60.10;;;;;;6067044;23;20010;-79
2022/07/25 02:57:34;;;;;;;2.53;2.10;;;23.30;60.40;;;;;;6083661;23;20013;-79
2022/07/25 02:59:59;;;;;;;3.07;2.30;;;23.30;60.40;;;;;;6108630;23;20231;-79
2022/07/25 03:02:25;;;;;;;3.67;2.10;;;23.20;60.50;;;;;;6085558;23;20021;-79
2022/07/25 03:04:51;;;;;;;3.87;2.50;;;23.20;60.60;;;;;;6074323;23;20527;-79
2022/07/25 03:07:17;;;;;;;3.08;2.25;;;23.10;60.70;;;;;;6085388;23;20021;-79
2022/07/25 03:09:42;;;;;;;3.60;2.50;;;23.10;60.90;;;;;;6073779;23;20018;-79
2022/07/25 03:12:08;;;;;;;3.78;2.30;;;23.10;61.00;;;;;;6072988;23;20043;-79
2022/07/25 03:14:33;;;;;;;3.10;2.23;;;23.00;61.10;;;;;;6080836;23;20387;-79
2022/07/25 03:16:59;;;;;;;3.35;2.35;;;23.00;61.20;;;;;;6105412;23;20234;-79
2022/07/25 03:19:25;;;;;;;3.17;2.07;;;23.00;61.30;;;;;;6078841;23;20432;-79
2022/07/25 03:21:50;;;;;;;3.67;2.13;;;23.00;61.50;;;;;;6081002;23;20010;-79
2022/07/25 03:24:17;;;;;;;2.85;2.25;;;22.90;61.60;;;;;;6111718;23;20024;-79
2022/07/25 03:26:43;;;;;;;3.45;2.30;;;22.90;61.70;;;;;;6068100;23;20204;-79
2022/07/25 03:29:09;;;;;;;3.70;2.07;;;22.90;61.90;;;;;;6083994;23;20024;-79
2022/07/25 03:31:34;;;;;;;3.15;2.28;;;22.90;62.00;;;;;;6110474;23;20330;-79
2022/07/25 03:34:00;;;;;;;3.07;2.40;;;22.90;62.00;;;;;;6069974;23;20279;-79
2022/07/25 03:36:25;;;;;;;5.13;2.23;;;22.80;62.00;;;;;;6085009;23;20113;-79
2022/07/25 03:38:51;;;;;;;4.20;2.35;;;22.80;62.30;;;;;;6107143;23;20038;-79
2022/07/25 03:41:17;;;;;;;3.47;2.33;;;22.80;62.50;;;;;;6081873;23;20014;-79
2022/07/25 03:43:43;;;;;;;3.95;2.40;;;22.80;62.50;;;;;;6096640;23;20671;-79
2022/07/25 03:46:08;;;;;;;3.00;2.30;;;22.80;62.70;;;;;;6085338;23;20109;-79
2022/07/25 03:48:34;;;;;;;3.50;2.17;;;22.80;62.70;;;;;;6103192;23;20045;-79
2022/07/25 03:50:59;;;;;;;3.97;2.30;;;22.80;62.90;;;;;;6103052;23;20037;-79
2022/07/25 03:53:25;;;;;;;3.92;2.17;;;22.80;63.10;;;;;;6110882;23;20427;-79
2022/07/25 03:55:51;;;;;;;2.77;2.10;;;22.80;63.10;;;;;;6097904;23;20010;-79
2022/07/25 03:58:16;;;;;;;2.87;2.10;;;22.80;63.10;;;;;;6100621;23;20006;-79
2022/07/25 04:00:42;;;;;;;3.50;2.30;;;22.80;63.10;;;;;;6101100;23;20005;-79
2022/07/25 04:03:08;;;;;;;3.07;2.33;;;22.80;63.10;;;;;;6110638;23;20091;-79
2022/07/25 04:05:33;;;;;;;3.23;2.30;;;22.80;63.20;;;;;;6100634;23;20245;-78
2022/07/25 04:07:59;;;;;;;4.70;2.40;;;22.80;63.30;;;;;;6102798;23;20600;-79
2022/07/25 04:10:25;;;;;;;5.53;2.55;;;22.80;63.40;;;;;;6111678;23;20045;-78
2022/07/25 04:12:50;;;;;;;3.90;2.30;;;22.70;63.40;;;;;;6092418;23;20196;-79
2022/07/25 04:15:16;;;;;;;3.90;2.50;;;22.80;63.60;;;;;;6104898;23;20634;-79
2022/07/25 04:17:42;;;;;;;3.67;2.58;;;22.80;63.70;;;;;;6080987;23;20006;-79
2022/07/25 04:20:08;;;;;;;3.50;2.70;;;22.80;63.80;;;;;;6103335;23;20014;-78
2022/07/25 04:22:34;;;;;;;4.88;2.58;;;22.80;63.80;;;;;;6102550;23;20041;-78
2022/07/25 04:25:00;;;;;;;4.20;2.72;;;22.90;63.90;;;;;;6082070;23;20244;-78
2022/07/25 04:27:26;;;;;;;3.73;2.33;;;22.90;63.90;;;;;;6107702;23;20025;-79
2022/07/25 04:29:51;;;;;;;4.53;2.70;;;23.00;64.00;;;;;;6063269;23;20213;-79
2022/07/25 04:32:18;;;;;;;3.50;2.40;;;23.00;63.80;;;;;;6108480;23;20025;-79
2022/07/25 04:34:44;;;;;;;4.03;2.40;;;23.10;63.90;;;;;;6106823;23;20021;-79
2022/07/25 04:37:09;;;;;;;3.40;2.25;;;23.10;63.90;;;;;;6104716;23;20157;-78
2022/07/25 04:39:35;;;;;;;4.50;2.40;;;23.10;63.80;;;;;;6101478;23;20014;-79
2022/07/25 04:42:00;;;;;;;2.83;2.20;;;23.10;63.70;;;;;;6078880;23;20056;-78
2022/07/25 04:44:27;;;;;;;2.97;2.13;;;23.20;63.80;;;;;;6099397;23;20010;-78
2022/07/25 04:46:52;;;;;;;2.58;2.03;;;23.30;63.80;;;;;;6106481;23;20221;-78
2022/07/25 04:49:18;;;;;;;3.30;2.37;;;23.20;63.70;;;;;;6084108;23;20322;-79
2022/07/25 04:51:43;;;;;;;2.78;2.13;;;23.30;63.60;;;;;;6106652;23;20041;-77
2022/07/25 04:54:09;;;;;;;4.13;2.23;;;23.40;63.70;;;;;;6101457;23;20010;-78
2022/07/25 04:56:35;;;;;;;3.20;2.20;;;23.40;63.60;;;;;;6105849;23;20078;-78
2022/07/25 04:59:00;;;;;;;3.03;2.13;;;23.40;63.60;;;;;;6078843;23;20220;-78
2022/07/25 05:01:26;;;;;;;2.63;2.10;;;23.50;63.50;;;;;;6097721;23;20085;-78
2022/07/25 05:03:51;;;;;;;3.83;2.20;;;23.50;63.40;;;;;;6096218;23;20467;-77
2022/07/25 05:06:18;;;;;;;3.47;2.17;;;23.60;63.30;;;;;;6080051;23;20104;-78
2022/07/25 05:08:44;;;;;;;2.90;1.95;;;23.60;63.20;;;;;;6093741;23;20014;-78
2022/07/25 05:11:09;;;;;;;3.00;2.00;;;23.60;63.10;;;;;;6098798;23;20583;-78
2022/07/25 05:13:35;;;;;;;2.20;1.88;;;23.60;62.90;;;;;;6107834;23;20037;-78
2022/07/25 05:16:01;;;;;;;3.53;1.90;;;23.60;62.80;;;;;;6093317;23;20343;-78
2022/07/25 05:18:27;;;;;;;3.35;2.00;;;23.60;62.70;;;;;;6084443;23;20018;-78
2022/07/25 05:20:53;;;;;;;2.60;1.90;;;23.60;62.70;;;;;;6108975;23;20014;-78
2022/07/25 05:23:19;;;;;;;3.22;1.90;;;23.70;62.70;;;;;;6063989;23;20018;-78
2022/07/25 05:25:45;;;;;;;2.53;1.90;;;23.70;62.70;;;;;;6085859;23;20021;-78
2022/07/25 05:28:10;;;;;;;3.13;1.70;;;23.70;62.70;;;;;;6109132;23;20475;-78
2022/07/25 05:30:36;;;;;;;2.53;1.83;;;23.70;62.70;;;;;;6083761;23;20073;-78
2022/07/25 05:33:02;;;;;;;2.93;1.57;;;23.80;62.80;;;;;;6090148;23;20514;-78
2022/07/25 05:35:27;;;;;;;3.25;1.52;;;23.80;62.80;;;;;;6112370;23;20014;-78
2022/07/25 05:37:53;;;;;;;2.80;1.70;;;23.80;62.70;;;;;;6106991;23;20062;-78
2022/07/25 05:40:18;;;;;;;3.95;1.83;;;23.80;62.70;;;;;;6074999;23;20356;-78
2022/07/25 05:42:44;;;;;;;2.73;1.87;;;23.80;62.60;;;;;;6112999;23;20081;-78
2022/07/25 05:45:10;;;;;;;2.42;1.60;;;23.80;62.60;;;;;;6101409;23;20232;-79
2022/07/25 05:47:35;;;;;;;2.77;1.60;;;23.80;62.60;;;;;;6074054;23;20017;-78
2022/07/25 05:50:01;;;;;;;3.47;2.10;;;23.90;62.70;;;;;;6078448;23;20036;-78
2022/07/25 05:52:27;;;;;;;2.85;1.70;;;23.80;62.70;;;;;;6110929;23;20014;-78
2022/07/25 05:54:53;;;;;;;2.90;1.70;;;23.90;62.90;;;;;;6100261;23;20501;-78
2022/07/25 05:57:18;;;;;;;3.57;1.80;;;23.90;63.10;;;;;;6101964;23;20494;-79
2022/07/25 05:59:44;;;;;;;2.65;1.45;;;24.00;63.20;;;;;;6111505;23;20014;-78
2022/07/25 06:02:10;;;;;;;2.73;1.30;;;24.00;63.30;;;;;;6089204;23;20735;-79
2022/07/25 06:04:35;;;;;;;2.58;1.40;;;24.00;63.30;;;;;;6085636;23;20065;-78
2022/07/25 06:07:01;;;;;;;2.57;1.40;;;24.10;63.40;;;;;;6082546;23;20529;-78
2022/07/25 06:09:27;;;;;;;2.30;1.10;;;24.10;63.40;;;;;;6101161;23;20021;-78
2022/07/25 06:11:52;;;;;;;2.40;1.40;;;24.10;63.60;;;;;;6070025;23;20302;-78
2022/07/25 06:14:18;;;;;;;2.15;1.50;;;24.20;63.50;;;;;;6075350;23;20021;-78
2022/07/25 06:16:43;;;;;;;1.90;1.27;;;24.20;63.40;;;;;;6105082;23;20013;-78
2022/07/25 06:19:09;;;;;;;2.27;1.40;;;24.20;63.30;;;;;;6099666;23;20061;-78
2022/07/25 06:21:35;;;;;;;1.90;1.10;;;24.30;63.30;;;;;;6077139;23;20447;-78
2022/07/25 06:24:01;;;;;;;2.85;1.30;;;24.30;63.30;;;;;;6109067;23;20308;-78
2022/07/25 06:26:27;;;;;;;3.73;1.10;;;24.30;63.10;;;;;;6068431;23;20205;-77
2022/07/25 06:28:53;;;;;;;2.17;1.30;;;24.30;63.10;;;;;;6110644;23;20455;-78
2022/07/25 06:31:19;;;;;;;2.53;1.30;;;24.30;63.00;;;;;;6064240;23;20340;-78
2022/07/25 06:33:44;;;;;;;2.20;1.20;;;24.30;63.00;;;;;;6072085;23;20018;-78
2022/07/25 06:36:10;;;;;;;3.42;1.30;;;24.30;63.10;;;;;;6103560;23;20520;-77
2022/07/25 06:38:35;;;;;;;5.67;1.23;;;24.30;63.10;;;;;;6108220;23;20025;-78
2022/07/25 06:41:01;;;;;;;3.25;1.20;;;24.40;63.10;;;;;;6081374;23;20316;-78
2022/07/25 06:43:27;;;;;;;4.00;1.30;;;24.30;63.10;;;;;;6074754;23;20014;-78
2022/07/25 06:45:53;;;;;;;3.40;1.50;;;24.40;63.00;;;;;;6105241;23;20014;-78
2022/07/25 06:48:18;;;;;;;3.10;1.40;;;24.40;63.00;;;;;;6092475;23;20010;-78
2022/07/25 06:50:44;;;;;;;2.85;1.20;;;24.30;62.90;;;;;;6093533;23;20053;-78
2022/07/25 06:53:10;;;;;;;3.40;1.40;;;24.40;63.00;;;;;;6082619;23;20018;-78
2022/07/25 06:55:36;;;;;;;1.93;1.23;;;24.30;63.00;;;;;;6083490;23;20018;-78
2022/07/25 06:58:01;;;;;;;2.97;1.17;;;24.40;63.40;;;;;;6069154;23;20339;-77
2022/07/25 07:00:27;;;;;;;3.60;1.35;;;24.40;63.50;;;;;;6106473;23;20600;-78
2022/07/25 07:02:55;;;;;;;3.10;1.13;;;24.50;63.70;;;;;;6107859;23;20444;-78
2022/07/25 07:05:22;;;;;;;2.58;1.40;;;24.50;63.80;;;;;;6094566;23;20878;-78
2022/07/25 07:07:48;;;;;;;2.40;1.30;;;24.60;64.00;;;;;;6105368;23;20021;-78
2022/07/25 07:10:15;;;;;;;2.95;1.15;;;24.70;64.10;;;;;;6082121;23;20028;-78
2022/07/25 07:12:40;;;;;;;2.15;1.33;;;24.70;64.10;;;;;;6096832;23;20010;-78
2022/07/25 07:15:06;;;;;;;1.97;1.30;;;24.80;64.10;;;;;;6080868;23;20601;-78
2022/07/25 07:17:32;;;;;;;2.80;1.30;;;24.90;64.10;;;;;;6110853;23;20311;-79
2022/07/25 07:19:58;;;;;;;2.55;1.30;;;25.00;64.20;;;;;;6080395;23;20347;-79
2022/07/25 07:22:23;;;;;;;2.97;1.40;;;25.10;64.00;;;;;;6098819;23;20318;-78
2022/07/25 07:24:49;;;;;;;2.07;1.20;;;25.10;64.00;;;;;;6112079;23;20014;-79
2022/07/25 07:27:15;;;;;;;2.65;1.23;;;25.20;64.30;;;;;;6063888;23;20009;-78
2022/07/25 07:29:40;;;;;;;1.83;1.17;;;25.30;64.40;;;;;;6111770;23;20097;-79
2022/07/25 07:32:06;;;;;;;2.92;1.30;;;25.40;64.40;;;;;;6106552;23;20018;-78
2022/07/25 07:34:32;;;;;;;1.80;1.30;;;25.50;64.30;;;;;;6095191;23;20216;-80
2022/07/25 07:36:57;;;;;;;4.13;1.40;;;25.60;64.20;;;;;;6068446;23;20611;-78
2022/07/25 07:39:23;;;;;;;2.37;1.00;;;25.80;64.10;;;;;;6077731;23;20518;-79
2022/07/25 07:41:49;;;;;;;2.70;1.17;;;25.90;64.00;;;;;;6097863;23;20693;-79
2022/07/25 07:44:14;;;;;;;2.23;1.10;;;25.90;63.40;;;;;;6100707;23;20073;-78
2022/07/25 07:46:40;;;;;;;2.58;0.90;;;26.00;63.40;;;;;;6105124;23;20017;-79
2022/07/25 07:49:05;;;;;;;3.00;1.20;;;26.00;63.60;;;;;;6077993;23;20101;-78
2022/07/25 07:51:31;;;;;;;2.73;1.20;;;26.10;64.10;;;;;;6095715;23;20020;-78
2022/07/25 07:56:41;;;;;;;2.55;1.10;;;26.50;65.20;;;;;;6103772;23;20013;-78
2022/07/25 07:59:06;;;;;;;1.93;1.10;;;26.80;65.80;;;;;;6100454;23;20006;-78
2022/07/25 08:01:33;;;;;;;2.83;1.10;;;27.20;65.80;;;;;;6098351;23;20387;-78
2022/07/25 08:03:59;;;;;;;3.03;1.20;;;27.50;65.00;;;;;;6103668;23;20113;-79
2022/07/25 08:06:26;;;;;;;1.85;1.20;;;27.70;63.80;;;;;;6109027;23;20108;-79
2022/07/25 08:08:52;;;;;;;1.63;1.20;;;27.90;62.60;;;;;;6089318;23;20332;-79
2022/07/25 08:11:18;;;;;;;1.73;1.10;;;28.00;62.40;;;;;;6084565;23;20014;-79
2022/07/25 08:13:44;;;;;;;1.67;1.20;;;28.10;62.50;;;;;;6102045;23;20013;-78
2022/07/25 08:16:11;;;;;;;3.30;1.40;;;28.10;62.70;;;;;;6100894;23;20010;-78
2022/07/25 08:18:36;;;;;;;1.53;1.10;;;28.30;63.10;;;;;;6106400;23;20117;-78
2022/07/25 08:21:04;;;;;;;2.05;1.10;;;28.60;63.60;;;;;;6108758;23;20010;-79
2022/07/25 08:23:34;;;;;;;2.50;1.20;;;28.80;63.30;;;;;;6090035;23;20014;-79
2022/07/25 08:26:01;;;;;;;1.83;1.10;;;29.20;63.80;;;;;;6086179;23;20018;-78
2022/07/25 08:28:27;;;;;;;1.80;1.30;;;29.50;63.20;;;;;;6102748;23;20123;-79
2022/07/25 08:30:53;;;;;;;1.75;1.10;;;29.90;62.80;;;;;;6099935;23;20024;-79
2022/07/25 08:33:18;;;;;;;1.45;1.20;;;30.20;62.30;;;;;;6102622;23;20022;-78
2022/07/25 08:35:46;;;;;;;1.10;1.00;;;30.60;61.90;;;;;;6106974;23;20025;-78
2022/07/25 08:38:12;;;;;;;3.10;1.20;;;30.90;61.30;;;;;;6108277;23;20013;-80
2022/07/25 08:40:38;;;;;;;1.60;1.00;;;31.30;60.70;;;;;;6091279;23;20010;-79
2022/07/25 08:43:04;;;;;;;3.10;1.20;;;31.60;60.20;;;;;;6112118;23;20469;-80
2022/07/25 08:45:32;;;;;;;2.00;1.45;;;32.00;60.00;;;;;;6095139;23;20013;-78
2022/07/25 08:47:57;;;;;;;2.33;1.20;;;32.30;59.00;;;;;;6111474;23;20065;-79
2022/07/25 08:50:28;;;;;;;1.77;1.27;;;32.60;58.60;;;;;;6082925;23;20009;-79
2022/07/25 08:52:54;;;;;;;2.70;1.30;;;32.90;56.90;;;;;;6109092;23;20014;-79
2022/07/25 08:55:22;;;;;;;1.27;1.10;;;33.10;56.80;;;;;;6070774;23;20017;-79
2022/07/25 08:57:51;;;;;;;1.80;1.25;;;33.40;55.90;;;;;;6080787;23;20080;-79
2022/07/25 09:00:27;;;;;;;2.60;1.43;;;33.50;55.30;;;;;;6103340;23;20439;-79
2022/07/25 09:02:59;;;;;;;1.30;1.20;;;33.90;54.70;;;;;;6086493;23;20073;-80
2022/07/25 09:05:26;;;;;;;1.80;1.40;;;34.10;53.70;;;;;;6082751;23;20016;-79
2022/07/25 09:07:53;;;;;;;1.67;1.38;;;34.30;54.40;;;;;;6113619;23;20296;-79
2022/07/25 09:10:27;;;;;;;2.25;1.30;;;34.50;54.50;;;;;;6103600;23;20440;-79
2022/07/25 09:13:01;;;;;;;2.30;1.37;;;34.70;52.20;;;;;;6109455;23;20010;-79
2022/07/25 09:15:32;;;;;;;2.45;1.30;;;34.90;51.20;;;;;;6064799;23;20022;-79
2022/07/25 09:18:12;;;;;;;2.10;1.33;;;35.10;52.00;;;;;;6062221;23;20014;-79
2022/07/25 09:20:48;;;;;;;1.85;1.20;;;35.30;49.60;;;;;;6103451;23;20106;-79
2022/07/25 09:23:29;;;;;;;2.40;1.30;;;35.50;50.10;;;;;;6076637;23;20018;-79
2022/07/25 09:26:12;;;;;;;1.40;1.30;;;35.80;48.50;;;;;;6111326;23;20073;-79
2022/07/25 09:28:42;;;;;;;2.15;1.50;;;35.90;48.20;;;;;;6094952;23;20511;-79
2022/07/25 09:31:09;;;;;;;2.33;1.58;;;36.10;48.40;;;;;;6086082;23;20140;-80
2022/07/25 09:33:44;;;;;;;2.95;1.45;;;36.20;48.80;;;;;;6063663;23;20268;-79
2022/07/25 09:36:11;;;;;;;2.47;1.48;;;36.30;46.30;;;;;;6062140;23;20017;-79
2022/07/25 09:38:36;;;;;;;1.60;1.27;;;36.50;47.40;;;;;;6108298;23;20327;-80
2022/07/25 09:41:02;;;;;;;1.88;1.48;;;36.50;46.30;;;;;;6113382;23;20037;-79
2022/07/25 09:43:43;;;;;;;2.00;1.60;;;36.50;46.40;;;;;;6067855;23;20075;-80
2022/07/25 09:46:09;;;;;;;2.55;1.60;;;36.50;45.00;;;;;;6041252;23;20650;-80
2022/07/25 09:48:38;;;;;;;2.03;1.60;;;36.50;45.70;;;;;;6071275;23;20220;-79
2022/07/25 09:51:04;;;;;;;1.58;1.40;;;36.50;45.60;;;;;;6085477;23;20088;-79
2022/07/25 09:53:30;;;;;;;1.88;1.50;;;36.50;45.70;;;;;;6082421;23;20024;-79
2022/07/25 09:55:56;;;;;;;1.50;1.40;;;36.60;45.10;;;;;;6072635;23;20204;-79
2022/07/25 09:58:23;;;;;;;1.90;1.70;;;36.60;44.50;;;;;;6098441;23;20245;-79
2022/07/25 10:00:49;;;;;;;1.83;1.40;;;36.40;43.70;;;;;;6077956;23;20361;-80
2022/07/25 10:03:24;;;;;;;1.35;1.25;;;36.30;43.90;;;;;;6067844;23;20040;-79
2022/07/25 10:06:06;;;;;;;1.40;1.20;;;36.10;43.50;;;;;;6077993;23;20033;-80
2022/07/25 10:08:37;;;;;;;1.80;1.30;;;36.00;42.70;;;;;;6110554;23;20022;-79
2022/07/25 10:11:05;;;;;;;2.03;1.40;;;35.90;43.40;;;;;;6102375;23;20018;-80
2022/07/25 10:13:33;;;;;;;1.90;1.20;;;35.80;43.70;;;;;;6071824;23;20317;-79
2022/07/25 10:16:00;;;;;;;1.40;1.20;;;35.50;42.80;;;;;;6105019;23;20014;-80
2022/07/25 10:18:27;;;;;;;1.85;1.38;;;35.30;42.20;;;;;;6101419;23;20085;-79
2022/07/25 10:21:06;;;;;;;2.05;1.10;;;35.00;42.30;;;;;;6084088;23;20176;-79
2022/07/25 10:23:32;;;;;;;1.80;1.00;;;34.60;42.40;;;;;;6104817;23;20404;-79
2022/07/25 10:26:09;;;;;;;1.52;1.25;;;34.40;43.00;;;;;;6085021;23;20049;-79
2022/07/25 10:28:40;;;;;;;1.80;1.30;;;34.20;42.60;;;;;;6103398;23;20025;-78
2022/07/25 10:31:21;;;;;;;1.87;1.20;;;33.90;43.00;;;;;;6079137;23;20021;-79
2022/07/25 10:33:52;;;;;;;1.65;1.30;;;33.70;42.80;;;;;;6096688;23;20097;-78
2022/07/25 10:36:18;;;;;;;1.85;1.30;;;33.40;43.10;;;;;;6099301;23;20075;-79
2022/07/25 10:38:45;;;;;;;1.60;1.20;;;33.20;43.20;;;;;;6092344;23;20685;-79
2022/07/25 10:41:14;;;;;;;1.65;1.15;;;32.90;43.30;;;;;;6111614;23;20092;-79
2022/07/25 10:43:40;;;;;;;2.07;1.10;;;32.60;43.60;;;;;;6109506;23;20604;-79
2022/07/25 10:46:13;;;;;;;1.60;1.23;;;32.50;43.80;;;;;;6074302;23;20093;-78
2022/07/25 10:48:39;;;;;;;3.17;1.20;;;32.30;43.90;;;;;;6064755;23;20781;-78
2022/07/25 10:51:07;;;;;;;2.67;1.30;;;32.20;44.20;;;;;;6073086;23;20536;-78
2022/07/25 10:53:52;;;;;;;1.40;1.20;;;32.00;44.20;;;;;;6107121;23;20195;-79
2022/07/25 10:56:20;;;;;;;1.48;1.20;;;31.90;44.40;;;;;;6081374;23;20029;-79
2022/07/25 10:59:00;;;;;;;2.33;1.45;;;31.80;44.60;;;;;;6109073;23;20010;-79
2022/07/25 11:01:31;;;;;;;2.63;1.35;;;31.70;44.80;;;;;;6086510;23;20080;-78
2022/07/25 11:04:02;;;;;;;2.67;1.30;;;31.50;44.70;;;;;;6091369;23;20431;-78
2022/07/25 11:06:38;;;;;;;1.87;1.50;;;31.30;45.00;;;;;;6075127;23;20168;-79
2022/07/25 11:09:19;;;;;;;1.60;1.27;;;31.20;45.20;;;;;;6081464;23;20014;-79
2022/07/25 11:11:50;;;;;;;2.20;1.20;;;31.00;45.70;;;;;;6106807;23;20403;-78
2022/07/25 11:14:32;;;;;;;2.08;1.45;;;30.90;45.80;;;;;;6082848;23;20009;-78
2022/07/25 11:17:08;;;;;;;2.58;1.25;;;30.80;46.20;;;;;;6091025;23;20079;-78
2022/07/25 11:19:34;;;;;;;1.90;1.20;;;30.70;46.00;;;;;;6093684;23;20443;-78
2022/07/25 11:22:03;;;;;;;1.60;1.25;;;30.60;46.00;;;;;;6090908;23;20102;-79
2022/07/25 11:24:39;;;;;;;2.20;1.38;;;30.50;46.10;;;;;;6112609;23;20010;-78
2022/07/25 11:27:08;;;;;;;2.97;1.30;;;30.40;46.20;;;;;;6078070;23;20081;-78
2022/07/25 11:29:34;;;;;;;2.25;1.20;;;30.30;46.00;;;;;;6112707;23;20017;-78
2022/07/25 11:32:03;;;;;;;2.58;1.20;;;30.20;46.10;;;;;;6084286;23;20010;-78
2022/07/25 11:34:31;;;;;;;2.28;1.20;;;30.10;46.20;;;;;;6086685;23;20431;-78
2022/07/25 11:36:59;;;;;;;2.15;1.38;;;29.90;46.30;;;;;;6103442;23;20018;-78
2022/07/25 11:39:27;;;;;;;2.20;1.27;;;29.80;46.70;;;;;;6073896;23;20037;-78
2022/07/25 11:42:07;;;;;;;2.33;1.17;;;29.70;46.90;;;;;;6101703;23;20010;-78
2022/07/25 11:44:39;;;;;;;2.40;1.55;;;29.60;47.20;;;;;;6100167;23;20518;-78
2022/07/25 11:47:22;;;;;;;1.85;1.20;;;29.50;47.20;;;;;;6091232;23;20060;-78
2022/07/25 11:49:50;;;;;;;2.28;1.30;;;29.30;47.20;;;;;;6108838;23;20100;-78
2022/07/25 11:52:33;;;;;;;2.93;1.30;;;29.20;47.00;;;;;;6065485;23;20014;-79
2022/07/25 11:55:07;;;;;;;1.98;1.00;;;29.00;47.60;;;;;;6085757;23;20263;-78
2022/07/25 11:57:38;;;;;;;1.33;1.10;;;28.80;47.30;;;;;;6076685;23;20211;-78
2022/07/25 12:00:10;;;;;;;2.33;1.20;;;28.70;47.70;;;;;;6110186;23;20069;-78
2022/07/25 12:02:36;;;;;;;2.17;1.30;;;28.50;47.90;;;;;;6097979;23;20471;-78
2022/07/25 12:05:07;;;;;;;1.53;1.00;;;28.40;48.00;;;;;;6103626;23;20036;-78
2022/07/25 12:07:37;;;;;;;3.10;1.30;;;28.30;48.10;;;;;;6094186;23;20326;-78
2022/07/25 12:10:03;;;;;;;1.42;1.10;;;28.20;48.50;;;;;;6108189;23;20065;-78
2022/07/25 12:12:40;;;;;;;2.30;1.20;;;28.10;48.60;;;;;;6075493;23;20132;-78
2022/07/25 12:15:07;;;;;;;3.20;1.20;;;28.20;49.10;;;;;;6109234;23;20021;-77
2022/07/25 12:17:33;;;;;;;2.27;1.10;;;28.10;49.20;;;;;;6063751;23;20653;-78
2022/07/25 12:19:59;;;;;;;3.15;1.20;;;28.20;49.60;;;;;;6106299;23;20042;-79
2022/07/25 12:22:27;;;;;;;2.70;1.07;;;28.30;49.90;;;;;;6096526;23;20024;-78
2022/07/25 12:24:53;;;;;;;3.13;1.30;;;28.40;50.40;;;;;;6103728;23;20480;-79
2022/07/25 12:27:18;;;;;;;2.37;1.20;;;28.60;51.10;;;;;;6097786;23;20085;-78
2022/07/25 12:29:44;;;;;;;2.55;1.10;;;28.90;51.90;;;;;;6099009;23;20537;-78
2022/07/25 12:32:09;;;;;;;2.53;1.30;;;29.40;52.80;;;;;;6102494;23;20025;-78
2022/07/25 12:34:35;;;;;;;2.40;1.27;;;29.70;51.90;;;;;;6069622;23;20009;-78
2022/07/25 12:37:01;;;;;;;2.67;1.20;;;30.20;52.00;;;;;;6103369;23;20014;-78
2022/07/25 12:39:26;;;;;;;2.00;1.10;;;30.60;51.30;;;;;;6068079;23;20009;-79
2022/07/25 12:41:52;;;;;;;3.05;1.40;;;30.90;50.20;;;;;;6066969;23;20652;-78
2022/07/25 12:44:17;;;;;;;2.43;1.30;;;31.10;48.50;;;;;;6077481;23;20395;-78
2022/07/25 12:46:43;;;;;;;2.50;1.27;;;31.10;47.70;;;;;;6105841;23;20010;-78
2022/07/25 12:49:09;;;;;;;1.93;1.10;;;31.00;47.20;;;;;;6097618;23;20380;-78
2022/07/25 12:51:34;;;;;;;2.28;1.10;;;30.80;46.90;;;;;;6103982;23;20021;-78